createdAt,value
2018-07-22T00:01:06.946Z,7.77
2018-07-22T00:03:35.289Z,7.60
2018-07-22T00:06:03.565Z,7.17
2018-07-22T00:08:31.890Z,8.83
2018-07-22T00:11:00.225Z,7.17
2018-07-22T00:13:28.532Z,7.27
2018-07-22T00:15:56.891Z,10.63
2018-07-22T00:18:25.232Z,8.53
2018-07-22T00:20:53.526Z,8.80
2018-07-22T00:23:21.851Z,7.90
2018-07-22T00:25:50.134Z,7.03
2018-07-22T00:28:18.506Z,6.67
2018-07-22T00:30:46.814Z,7.10
2018-07-22T00:33:15.137Z,5.87
2018-07-22T00:35:43.517Z,6.57
2018-07-22T00:38:11.869Z,6.27
2018-07-22T00:40:40.137Z,7.23
2018-07-22T00:43:08.421Z,6.70
2018-07-22T00:45:36.746Z,8.50
2018-07-22T00:48:05.178Z,9.63
2018-07-22T00:50:33.521Z,9.33
2018-07-22T00:53:01.882Z,7.63
2018-07-22T00:55:30.209Z,6.83
2018-07-22T00:57:58.535Z,8.30
2018-07-22T01:00:26.825Z,6.87
2018-07-22T01:02:54.809Z,5.63
2018-07-22T01:05:23.177Z,6.10
2018-07-22T01:07:51.270Z,8.77
2018-07-22T01:10:19.665Z,8.07
2018-07-22T01:12:47.953Z,13.03
2018-07-22T01:15:16.229Z,8.03
2018-07-22T01:17:44.514Z,7.13
2018-07-22T01:20:12.801Z,7.60
2018-07-22T01:22:41.152Z,7.83
2018-07-22T01:25:09.473Z,7.60
2018-07-22T01:27:37.773Z,7.60
2018-07-22T01:30:06.391Z,7.17
2018-07-22T01:32:34.762Z,6.60
2018-07-22T01:35:03.136Z,5.80
2018-07-22T01:37:31.434Z,6.37
2018-07-22T01:39:59.688Z,5.70
2018-07-22T01:42:28.033Z,8.57
2018-07-22T01:44:56.423Z,5.90
2018-07-22T01:47:24.725Z,5.80
2018-07-22T01:49:53.064Z,7.23
2018-07-22T01:52:21.435Z,6.53
2018-07-22T01:54:49.690Z,7.77
2018-07-22T01:57:17.993Z,6.70
2018-07-22T01:59:46.448Z,6.60
2018-07-22T02:02:14.780Z,7.47
2018-07-22T02:04:43.056Z,6.43
2018-07-22T02:07:11.350Z,7.00
2018-07-22T02:09:39.620Z,6.67
2018-07-22T02:12:08.054Z,4.73
2018-07-22T02:14:36.342Z,5.60
2018-07-22T02:17:04.656Z,7.00
2018-07-22T02:19:33.008Z,4.93
2018-07-22T02:22:00.999Z,4.87
2018-07-22T02:24:29.296Z,4.57
2018-07-22T02:26:57.562Z,5.17
2018-07-22T02:29:25.862Z,5.27
2018-07-22T02:31:54.171Z,5.57
2018-07-22T02:34:22.481Z,5.47
2018-07-22T02:36:50.807Z,4.90
2018-07-22T02:39:19.138Z,4.37
2018-07-22T02:41:47.442Z,4.50
2018-07-22T02:44:15.797Z,5.17
2018-07-22T02:46:44.082Z,5.77
2018-07-22T02:49:12.354Z,5.23
2018-07-22T02:51:40.743Z,5.80
2018-07-22T02:54:09.058Z,5.03
2018-07-22T02:56:37.471Z,4.60
2018-07-22T02:59:06.237Z,6.10
2018-07-22T03:01:36.309Z,7.83
2018-07-22T03:04:05.096Z,9.90
2018-07-22T03:06:33.652Z,10.20
2018-07-22T03:09:01.682Z,9.50
2018-07-22T03:11:30.079Z,8.70
2018-07-22T03:13:58.444Z,8.00
2018-07-22T03:16:26.660Z,8.33
2018-07-22T03:18:54.921Z,7.33
2018-07-22T03:21:22.949Z,7.20
2018-07-22T03:23:51.344Z,7.73
2018-07-22T03:26:19.687Z,8.03
2018-07-22T03:28:48.035Z,6.90
2018-07-22T03:31:16.041Z,5.67
2018-07-22T03:33:44.396Z,5.57
2018-07-22T03:36:12.701Z,4.93
2018-07-22T03:38:41.054Z,4.43
2018-07-22T03:41:09.394Z,5.20
2018-07-22T03:43:37.761Z,4.93
2018-07-22T03:46:06.234Z,5.50
2018-07-22T03:48:34.617Z,12.23
2018-07-22T03:51:02.977Z,16.77
2018-07-22T03:53:31.296Z,17.43
2018-07-22T03:55:59.299Z,15.93
2018-07-22T03:58:27.729Z,16.17
2018-07-22T04:00:56.096Z,17.07
2018-07-22T04:03:24.434Z,16.77
2018-07-22T04:05:52.858Z,16.70
2018-07-22T04:08:21.198Z,17.03
2018-07-22T04:10:49.530Z,15.10
2018-07-22T04:13:17.897Z,15.53
2018-07-22T04:15:46.206Z,15.70
2018-07-22T04:18:14.346Z,15.83
2018-07-22T04:20:42.724Z,15.30
2018-07-22T04:23:11.052Z,15.73
2018-07-22T04:25:39.020Z,15.73
2018-07-22T04:28:07.310Z,16.67
2018-07-22T04:30:35.725Z,16.60
2018-07-22T04:33:04.057Z,18.50
2018-07-22T04:35:32.400Z,16.43
2018-07-22T04:38:00.720Z,17.43
2018-07-22T04:40:29.066Z,17.73
2018-07-22T04:42:57.111Z,18.23
2018-07-22T04:45:25.498Z,17.67
2018-07-22T04:47:53.890Z,20.87
2018-07-22T04:50:22.193Z,15.80
2018-07-22T04:52:50.570Z,20.50
2018-07-22T04:55:18.681Z,18.17
2018-07-22T04:57:47.081Z,19.77
2018-07-22T05:00:15.478Z,18.97
2018-07-22T05:02:43.929Z,19.43
2018-07-22T05:05:12.258Z,18.13
2018-07-22T05:07:40.532Z,18.07
2018-07-22T05:10:08.606Z,19.70
2018-07-22T05:12:37.073Z,20.07
2018-07-22T05:15:05.434Z,17.17
2018-07-22T05:17:33.850Z,16.60
2018-07-22T05:20:02.377Z,16.50
2018-07-22T05:22:30.766Z,16.30
2018-07-22T05:24:59.156Z,17.60
2018-07-22T05:27:27.522Z,16.30
2018-07-22T05:29:55.839Z,17.83
2018-07-22T05:32:23.964Z,15.90
2018-07-22T05:34:52.359Z,17.10
2018-07-22T05:37:20.766Z,16.87
2018-07-22T05:39:49.208Z,16.87
2018-07-22T05:42:17.631Z,16.90
2018-07-22T05:44:45.979Z,16.20
2018-07-22T05:47:14.263Z,17.70
2018-07-22T05:49:42.557Z,17.47
2018-07-22T05:52:10.694Z,16.30
2018-07-22T05:54:39.108Z,16.07
2018-07-22T05:57:07.452Z,16.20
2018-07-22T05:59:35.814Z,15.97
2018-07-22T06:02:04.233Z,16.17
2018-07-22T06:04:32.581Z,17.83
2018-07-22T06:07:00.901Z,15.83
2018-07-22T06:09:28.933Z,15.40
2018-07-22T06:11:57.383Z,14.77
2018-07-22T06:14:25.613Z,14.97
2018-07-22T06:16:53.968Z,14.70
2018-07-22T06:19:22.062Z,14.20
2018-07-22T06:21:50.369Z,13.73
2018-07-22T06:24:18.682Z,13.80
2018-07-22T06:26:47.012Z,14.10
2018-07-22T06:29:15.336Z,12.77
2018-07-22T06:31:43.783Z,14.33
2018-07-22T06:34:12.149Z,13.57
2018-07-22T06:36:40.197Z,14.13
2018-07-22T06:39:10.817Z,13.37
2018-07-22T06:41:39.434Z,14.07
2018-07-22T06:44:07.481Z,13.97
2018-07-22T06:46:35.892Z,15.57
2018-07-22T06:49:04.311Z,14.67
2018-07-22T06:51:32.736Z,15.00
2018-07-22T06:54:01.044Z,15.27
2018-07-22T06:56:29.426Z,15.47
2018-07-22T06:58:58.039Z,13.73
2018-07-22T07:01:26.312Z,13.77
2018-07-22T07:03:54.704Z,15.10
2018-07-22T07:06:23.121Z,15.10
2018-07-22T07:08:51.462Z,16.20
2018-07-22T07:11:19.757Z,16.83
2018-07-22T07:13:48.088Z,16.00
2018-07-22T07:16:16.472Z,16.20
2018-07-22T07:18:44.802Z,16.27
2018-07-22T07:21:13.236Z,16.37
2018-07-22T07:23:41.566Z,15.87
2018-07-22T07:26:09.897Z,16.07
2018-07-22T07:28:38.308Z,17.60
2018-07-22T07:31:13.132Z,17.17
2018-07-22T07:33:41.564Z,17.90
2018-07-22T07:36:09.916Z,16.37
2018-07-22T07:38:38.177Z,16.77
2018-07-22T07:41:06.924Z,15.50
2018-07-22T07:43:35.304Z,16.90
2018-07-22T07:46:03.628Z,16.50
2018-07-22T07:48:31.899Z,16.87
2018-07-22T07:51:00.273Z,16.50
2018-07-22T07:53:28.701Z,17.10
2018-07-22T07:55:57.039Z,18.03
2018-07-22T07:58:25.320Z,17.43
2018-07-22T08:00:53.387Z,17.20
2018-07-22T08:03:21.682Z,17.43
2018-07-22T08:05:49.739Z,18.43
2018-07-22T08:08:17.806Z,16.07
2018-07-22T08:10:46.103Z,16.67
2018-07-22T08:13:14.429Z,17.57
2018-07-22T08:15:42.759Z,16.60
2018-07-22T08:18:11.042Z,17.50
2018-07-22T08:20:39.478Z,18.97
2018-07-22T08:23:07.856Z,19.50
2018-07-22T08:25:36.221Z,17.67
2018-07-22T08:28:04.612Z,17.70
2018-07-22T08:30:32.926Z,16.33
2018-07-22T08:33:01.210Z,17.13
2018-07-22T08:35:29.554Z,14.80
2018-07-22T08:37:57.913Z,17.30
2018-07-22T08:40:26.292Z,19.83
2018-07-22T08:42:54.594Z,20.57
2018-07-22T08:45:22.920Z,18.60
2018-07-22T08:47:51.217Z,20.30
2018-07-22T08:50:19.567Z,20.73
2018-07-22T08:52:47.956Z,20.67
2018-07-22T08:55:16.430Z,20.27
2018-07-22T08:57:44.840Z,20.00
2018-07-22T09:00:13.197Z,21.27
2018-07-22T09:02:41.540Z,21.13
2018-07-22T09:05:09.626Z,22.43
2018-07-22T09:07:37.928Z,21.73
2018-07-22T09:10:06.277Z,22.37
2018-07-22T09:12:34.606Z,21.20
2018-07-22T09:15:02.918Z,23.10
2018-07-22T09:17:30.889Z,24.33
2018-07-22T09:19:58.920Z,24.00
2018-07-22T09:22:27.213Z,22.10
2018-07-22T09:24:55.521Z,21.43
2018-07-22T09:27:23.564Z,22.17
2018-07-22T09:29:51.832Z,21.30
2018-07-22T09:32:20.149Z,22.17
2018-07-22T09:34:48.494Z,23.33
2018-07-22T09:37:16.808Z,20.60
2018-07-22T09:39:45.083Z,21.00
2018-07-22T09:42:13.430Z,20.70
2018-07-22T09:44:41.768Z,20.23
2018-07-22T09:47:10.263Z,17.83
2018-07-22T09:49:38.583Z,17.63
2018-07-22T09:52:06.613Z,17.57
2018-07-22T09:54:34.884Z,17.10
2018-07-22T09:57:03.182Z,15.67
2018-07-22T09:59:31.513Z,15.30
2018-07-22T10:01:59.772Z,20.20
2018-07-22T10:04:28.085Z,20.07
2018-07-22T10:06:56.379Z,16.07
2018-07-22T10:09:24.795Z,15.37
2018-07-22T10:11:53.084Z,16.07
2018-07-22T10:14:21.434Z,16.17
2018-07-22T10:16:49.813Z,18.77
2018-07-22T10:19:18.166Z,15.20
2018-07-22T10:21:46.505Z,15.73
2018-07-22T10:24:14.835Z,15.40
2018-07-22T10:26:43.169Z,13.47
2018-07-22T10:29:11.472Z,12.80
2018-07-22T10:31:39.767Z,13.80
2018-07-22T10:34:08.097Z,14.77
2018-07-22T10:36:36.501Z,16.87
2018-07-22T10:39:07.977Z,15.77
2018-07-22T10:41:36.392Z,15.90
2018-07-22T10:44:04.658Z,20.80
2018-07-22T10:46:32.801Z,16.80
2018-07-22T10:49:01.095Z,13.43
2018-07-22T10:51:29.369Z,14.73
2018-07-22T10:53:57.662Z,15.83
2018-07-22T10:56:26.066Z,17.10
2018-07-22T10:58:54.442Z,16.00
2018-07-22T11:01:22.882Z,16.37
2018-07-22T11:03:51.338Z,14.97
2018-07-22T11:06:19.724Z,16.10
2018-07-22T11:08:48.032Z,16.20
2018-07-22T11:11:16.386Z,16.00
2018-07-22T11:13:44.750Z,14.80
2018-07-22T11:16:13.176Z,15.87
2018-07-22T11:18:41.537Z,14.57
2018-07-22T11:21:09.990Z,14.67
2018-07-22T11:23:38.293Z,14.23
2018-07-22T11:26:06.707Z,13.87
2018-07-22T11:28:35.085Z,13.83
2018-07-22T11:31:03.416Z,13.13
2018-07-22T11:33:31.746Z,13.97
2018-07-22T11:36:00.120Z,14.93
2018-07-22T11:38:28.392Z,12.67
2018-07-22T11:40:56.655Z,14.53
2018-07-22T11:43:24.681Z,13.03
2018-07-22T11:45:53.046Z,13.23
2018-07-22T11:48:21.363Z,13.13
2018-07-22T11:50:49.802Z,12.23
2018-07-22T11:53:18.128Z,13.10
2018-07-22T11:55:46.610Z,13.23
2018-07-22T11:58:14.964Z,12.77
2018-07-22T12:00:47.633Z,12.43
2018-07-22T12:03:16.829Z,11.97
2018-07-22T12:05:45.166Z,12.10
2018-07-22T12:08:13.497Z,12.53
2018-07-22T12:10:41.789Z,12.00
2018-07-22T12:13:10.101Z,12.20
2018-07-22T12:15:38.425Z,12.70
2018-07-22T12:18:06.676Z,11.57
2018-07-22T12:20:35.057Z,11.50
2018-07-22T12:23:03.439Z,11.50
2018-07-22T12:25:31.737Z,11.70
2018-07-22T12:28:00.126Z,11.30
2018-07-22T12:30:28.494Z,11.57
2018-07-22T12:32:56.838Z,11.03
2018-07-22T12:35:25.077Z,11.07
2018-07-22T12:37:53.665Z,11.20
2018-07-22T12:40:21.788Z,11.23
2018-07-22T12:42:49.780Z,10.37
2018-07-22T12:45:18.116Z,10.40
2018-07-22T12:47:46.522Z,10.10
2018-07-22T12:50:14.801Z,9.70
2018-07-22T12:52:43.127Z,10.47
2018-07-22T12:55:11.475Z,9.70
2018-07-22T12:57:39.810Z,10.70
2018-07-22T13:00:08.178Z,10.67
2018-07-22T13:02:36.732Z,10.93
2018-07-22T13:05:05.712Z,10.33
2018-07-22T13:07:34.011Z,10.70
2018-07-22T13:10:02.119Z,10.87
2018-07-22T13:12:30.452Z,10.30
2018-07-22T13:14:58.770Z,9.57
2018-07-22T13:17:27.017Z,9.57
2018-07-22T13:19:55.084Z,10.47
2018-07-22T13:22:23.399Z,10.30
2018-07-22T13:24:51.671Z,10.00
2018-07-22T13:27:19.924Z,8.57
2018-07-22T13:29:48.261Z,9.87
2018-07-22T13:32:16.579Z,9.30
2018-07-22T13:34:44.925Z,8.80
2018-07-22T13:37:13.270Z,9.00
2018-07-22T13:39:41.635Z,9.03
2018-07-22T13:42:09.922Z,9.27
2018-07-22T13:44:38.204Z,8.43
2018-07-22T13:47:06.508Z,8.80
2018-07-22T13:49:34.773Z,8.97
2018-07-22T13:52:03.042Z,8.80
2018-07-22T13:54:31.285Z,9.20
2018-07-22T13:56:59.544Z,9.57
2018-07-22T13:59:27.578Z,8.50
2018-07-22T14:01:55.920Z,9.30
2018-07-22T14:04:24.188Z,8.83
2018-07-22T14:06:52.627Z,9.33
2018-07-22T14:09:21.263Z,9.13
2018-07-22T14:11:49.534Z,8.80
2018-07-22T14:14:18.026Z,8.40
2018-07-22T14:16:46.481Z,9.10
2018-07-22T14:19:14.913Z,8.67
2018-07-22T14:21:43.295Z,9.70
2018-07-22T14:24:11.655Z,8.73
2018-07-22T14:26:40.006Z,8.27
2018-07-22T14:29:08.484Z,8.00
2018-07-22T14:31:36.888Z,7.87
2018-07-22T14:34:05.342Z,8.00
2018-07-22T14:36:33.683Z,8.03
2018-07-22T14:39:02.001Z,8.70
2018-07-22T14:41:30.440Z,8.43
2018-07-22T14:43:58.870Z,8.37
2018-07-22T14:46:27.212Z,8.63
2018-07-22T14:48:55.672Z,8.30
2018-07-22T14:51:24.061Z,7.87
2018-07-22T14:53:52.405Z,7.70
2018-07-22T14:56:20.927Z,7.97
2018-07-22T14:58:49.260Z,8.37
2018-07-22T15:01:17.853Z,7.40
2018-07-22T15:03:46.274Z,7.70
2018-07-22T15:06:14.492Z,7.87
2018-07-22T15:08:43.457Z,7.50
2018-07-22T15:11:11.578Z,8.00
2018-07-22T15:13:40.093Z,7.57
2018-07-22T15:16:08.717Z,7.43
2018-07-22T15:18:37.188Z,7.93
2018-07-22T15:21:05.698Z,7.90
2018-07-22T15:23:34.637Z,7.97
2018-07-22T15:26:03.381Z,7.30
2018-07-22T15:28:31.668Z,7.37
2018-07-22T15:31:00.120Z,7.90
2018-07-22T15:33:28.412Z,7.60
2018-07-22T15:35:56.729Z,8.03
2018-07-22T15:38:25.041Z,9.53
2018-07-22T15:40:53.497Z,7.60
2018-07-22T15:43:21.528Z,7.90
2018-07-22T15:45:49.846Z,7.90
2018-07-22T15:48:17.930Z,7.63
2018-07-22T15:50:45.988Z,7.93
2018-07-22T15:53:14.473Z,7.67
2018-07-22T15:55:43.070Z,7.23
2018-07-22T15:58:11.434Z,7.40
2018-07-22T16:00:39.451Z,7.90
2018-07-22T16:03:07.805Z,7.90
2018-07-22T16:05:36.365Z,8.07
2018-07-22T16:08:04.745Z,7.67
2018-07-22T16:10:33.076Z,7.57
2018-07-22T16:13:01.441Z,8.47
2018-07-22T16:15:29.790Z,7.57
2018-07-22T16:17:58.061Z,8.07
2018-07-22T16:20:26.100Z,10.23
2018-07-22T16:22:54.482Z,8.20
2018-07-22T16:25:22.890Z,7.10
2018-07-22T16:27:50.925Z,7.87
2018-07-22T16:30:19.347Z,7.63
2018-07-22T16:32:47.512Z,7.83
2018-07-22T16:35:15.529Z,7.37
2018-07-22T16:37:43.897Z,8.20
2018-07-22T16:40:12.225Z,9.37
2018-07-22T16:42:40.888Z,8.17
2018-07-22T16:45:09.204Z,7.17
2018-07-22T16:47:37.174Z,7.40
2018-07-22T16:50:05.395Z,7.80
2018-07-22T16:52:33.681Z,7.40
2018-07-22T16:55:02.109Z,7.80
2018-07-22T16:57:30.619Z,8.33
2018-07-22T16:59:59.056Z,8.07
2018-07-22T17:02:27.397Z,7.80
2018-07-22T17:04:55.769Z,8.27
2018-07-22T17:07:24.053Z,7.90
2018-07-22T17:09:52.473Z,8.30
2018-07-22T17:12:20.797Z,7.70
2018-07-22T17:14:49.225Z,7.40
2018-07-22T17:17:17.605Z,7.67
2018-07-22T17:19:45.982Z,9.17
2018-07-22T17:22:14.381Z,8.83
2018-07-22T17:24:42.402Z,8.50
2018-07-22T17:27:10.755Z,8.37
2018-07-22T17:29:39.243Z,8.73
2018-07-22T17:32:07.566Z,7.90
2018-07-22T17:34:35.945Z,8.23
2018-07-22T17:37:04.281Z,7.63
2018-07-22T17:39:32.722Z,8.43
2018-07-22T17:42:01.098Z,8.50
2018-07-22T17:44:29.294Z,8.50
2018-07-22T17:46:57.654Z,8.30
2018-07-22T17:49:26.074Z,8.40
2018-07-22T17:51:54.446Z,14.30
2018-07-22T17:54:22.848Z,8.70
2018-07-22T17:56:51.256Z,8.87
2018-07-22T17:59:19.710Z,8.67
2018-07-22T18:01:47.691Z,8.73
2018-07-22T18:04:16.095Z,9.30
2018-07-22T18:06:44.188Z,9.53
2018-07-22T18:09:12.631Z,10.10
2018-07-22T18:11:40.934Z,11.13
2018-07-22T18:14:09.024Z,10.00
2018-07-22T18:16:37.435Z,10.03
2018-07-22T18:19:05.901Z,10.30
2018-07-22T18:21:34.220Z,11.13
2018-07-22T18:24:02.634Z,12.90
2018-07-22T18:26:30.975Z,14.10
2018-07-22T18:28:59.351Z,13.20
2018-07-22T18:31:27.691Z,16.40
2018-07-22T18:33:56.048Z,12.37
2018-07-22T18:36:24.427Z,14.27
2018-07-22T18:38:52.865Z,13.27
2018-07-22T18:41:21.204Z,15.50
2018-07-22T18:43:49.738Z,12.37
2018-07-22T18:46:18.053Z,12.87
2018-07-22T18:48:46.441Z,13.70
2018-07-22T18:51:14.871Z,14.10
2018-07-22T18:53:43.255Z,53.10
2018-07-22T18:56:11.735Z,15.30
2018-07-22T18:58:40.108Z,16.00
2018-07-22T19:01:08.451Z,15.47
2018-07-22T19:03:36.872Z,16.10
2018-07-22T19:06:05.199Z,16.70
2018-07-22T19:08:33.592Z,14.93
2018-07-22T19:11:01.943Z,14.60
2018-07-22T19:13:30.278Z,14.37
2018-07-22T19:15:58.633Z,13.83
2018-07-22T19:18:26.951Z,14.47
2018-07-22T19:20:55.042Z,16.93
2018-07-22T19:23:23.401Z,15.37
2018-07-22T19:25:51.494Z,16.40
2018-07-22T19:28:19.953Z,15.60
2018-07-22T19:30:48.323Z,15.23
2018-07-22T19:33:16.834Z,17.77
2018-07-22T19:35:45.202Z,14.40
2018-07-22T19:38:13.703Z,17.50
2018-07-22T19:40:42.177Z,20.03
2018-07-22T19:43:10.521Z,18.40
2018-07-22T19:45:38.906Z,16.20
2018-07-22T19:48:07.366Z,15.10
2018-07-22T19:50:35.636Z,16.23
2018-07-22T19:53:04.041Z,15.50
2018-07-22T19:55:32.508Z,15.40
2018-07-22T19:58:00.896Z,21.53
2018-07-22T20:00:29.304Z,20.47
2018-07-22T20:02:57.767Z,21.90
2018-07-22T20:05:26.030Z,18.07
2018-07-22T20:07:54.531Z,16.83
2018-07-22T20:10:22.781Z,18.00
2018-07-22T20:12:51.166Z,17.33
2018-07-22T20:15:19.474Z,17.70
2018-07-22T20:17:47.866Z,16.87
2018-07-22T20:20:16.239Z,17.37
2018-07-22T20:22:44.589Z,26.67
2018-07-22T20:25:12.895Z,18.40
2018-07-22T20:27:41.154Z,21.97
2018-07-22T20:30:09.204Z,21.83
2018-07-22T20:32:37.576Z,20.97
2018-07-22T20:35:05.990Z,21.03
2018-07-22T20:37:34.002Z,22.60
2018-07-22T20:40:03.094Z,18.87
2018-07-22T20:42:31.465Z,17.23
2018-07-22T20:44:59.904Z,16.37
2018-07-22T20:47:28.189Z,21.07
2018-07-22T20:49:56.251Z,20.13
2018-07-22T20:52:24.351Z,18.03
2018-07-22T20:54:52.687Z,21.20
2018-07-22T20:57:21.079Z,17.43
2018-07-22T20:59:49.483Z,16.33
2018-07-22T21:02:17.857Z,17.43
2018-07-22T21:04:46.271Z,17.00
2018-07-22T21:07:14.645Z,19.20
2018-07-22T21:09:43.042Z,17.53
2018-07-22T21:12:51.018Z,19.10
2018-07-22T21:15:19.476Z,19.77
2018-07-22T21:17:48.863Z,19.27
2018-07-22T21:20:18.096Z,17.67
2018-07-22T21:22:46.428Z,18.20
2018-07-22T21:25:15.245Z,16.67
2018-07-22T21:27:43.661Z,17.00
2018-07-22T21:30:12.714Z,17.57
2018-07-22T21:32:41.103Z,18.17
2018-07-22T21:35:09.309Z,18.33
2018-07-22T21:37:37.777Z,17.83
2018-07-22T21:40:06.268Z,17.30
2018-07-22T21:42:34.616Z,21.63
2018-07-22T21:45:03.408Z,22.07
2018-07-22T21:47:31.456Z,19.40
2018-07-22T21:49:59.841Z,18.57
2018-07-22T21:52:28.007Z,21.57
2018-07-22T21:54:56.332Z,23.13
2018-07-22T21:57:24.776Z,23.80
2018-07-22T21:59:53.196Z,22.57
2018-07-22T22:02:21.537Z,21.70
2018-07-22T22:04:49.711Z,19.70
2018-07-22T22:07:17.772Z,22.27
2018-07-22T22:09:46.120Z,22.20
2018-07-22T22:12:14.443Z,22.60
2018-07-22T22:14:42.437Z,21.43
2018-07-22T22:17:10.857Z,21.20
2018-07-22T22:19:39.226Z,23.13
2018-07-22T22:22:07.610Z,19.57
2018-07-22T22:24:36.073Z,23.03
2018-07-22T22:27:04.387Z,20.53
2018-07-22T22:29:32.760Z,19.50
2018-07-22T22:32:01.136Z,17.63
2018-07-22T22:34:29.404Z,17.77
2018-07-22T22:36:57.775Z,18.20
2018-07-22T22:39:26.850Z,18.93
2018-07-22T22:41:55.275Z,18.77
2018-07-22T22:44:23.627Z,19.23
2018-07-22T22:46:51.973Z,22.20
2018-07-22T22:49:20.401Z,23.27
2018-07-22T22:51:48.713Z,20.23
2018-07-22T22:54:16.783Z,22.50
2018-07-22T22:56:44.837Z,20.53
2018-07-22T22:59:19.012Z,21.27
2018-07-22T23:01:47.400Z,20.83
2018-07-22T23:04:16.183Z,22.03
2018-07-22T23:06:44.801Z,21.50
2018-07-22T23:09:14.167Z,22.53
2018-07-22T23:11:42.785Z,19.77
2018-07-22T23:14:11.089Z,22.00
2018-07-22T23:16:40.246Z,29.10
2018-07-22T23:19:08.578Z,28.30
2018-07-22T23:21:37.002Z,27.07
2018-07-22T23:24:05.361Z,25.03
2018-07-22T23:26:33.749Z,20.67
2018-07-22T23:29:03.134Z,19.00
2018-07-22T23:31:31.477Z,22.80
2018-07-22T23:33:59.540Z,21.60
2018-07-22T23:36:27.608Z,20.47
2018-07-22T23:38:55.936Z,22.40
2018-07-22T23:41:24.336Z,21.90
2018-07-22T23:43:52.664Z,19.77
2018-07-22T23:46:20.988Z,17.97
2018-07-22T23:48:49.331Z,19.27
2018-07-22T23:51:17.768Z,22.50
2018-07-22T23:53:46.120Z,21.67
2018-07-22T23:56:14.469Z,22.27
2018-07-22T23:58:42.851Z,23.07
